Terminal Aerodrome Forecast
Issued by NWS

Home | Current Version | Previous Version | Text Only | Print | Product List | Glossary On
Versions: 1 2 3 4 5 6 7 8 9 10 11 12 13 14 15 16
000
FTUS43 KAPX 021740
TAFTVC
TAF
KTVC 021740Z 0218/0318 23010G18KT P6SM BKN040
      TEMPO 0218/0220 4SM TSRA OVC035CB
     FM022000 24012KT P6SM VCTS BKN040CB
     FM030100 VRB04KT P6SM VCTS SCT015 OVC035CB
     FM030300 31005KT P6SM BKN020
     FM031400 33009KT P6SM SCT020 BKN040=

USA.gov is the U.S. government's official web portal to all federal, state and local government web resources and services.